sensor_id;sensor_type;location;lat;lon;timestamp;temperature;humidity
9118;DHT22;4594;50.994;7.126;2023-07-31T00:00:27;19.40;67.20
9118;DHT22;4594;50.994;7.126;2023-07-31T00:02:54;19.40;67.30
9118;DHT22;4594;50.994;7.126;2023-07-31T00:05:20;19.40;67.30
9118;DHT22;4594;50.994;7.126;2023-07-31T00:07:46;19.40;67.40
9118;DHT22;4594;50.994;7.126;2023-07-31T00:10:12;19.40;67.50
9118;DHT22;4594;50.994;7.126;2023-07-31T00:12:39;19.50;67.80
9118;DHT22;4594;50.994;7.126;2023-07-31T00:15:08;19.50;67.80
9118;DHT22;4594;50.994;7.126;2023-07-31T00:17:34;19.50;67.70
9118;DHT22;4594;50.994;7.126;2023-07-31T00:20:00;19.50;67.70
9118;DHT22;4594;50.994;7.126;2023-07-31T00:22:25;19.50;67.60
9118;DHT22;4594;50.994;7.126;2023-07-31T00:24:51;19.60;67.70
9118;DHT22;4594;50.994;7.126;2023-07-31T00:27:17;19.50;67.60
9118;DHT22;4594;50.994;7.126;2023-07-31T00:29:42;19.60;67.60
9118;DHT22;4594;50.994;7.126;2023-07-31T00:32:08;19.60;67.30
9118;DHT22;4594;50.994;7.126;2023-07-31T00:34:34;19.60;67.80
9118;DHT22;4594;50.994;7.126;2023-07-31T00:37:00;19.60;67.50
9118;DHT22;4594;50.994;7.126;2023-07-31T00:39:25;19.60;67.50
9118;DHT22;4594;50.994;7.126;2023-07-31T00:41:51;19.60;67.50
9118;DHT22;4594;50.994;7.126;2023-07-31T00:44:17;19.60;67.70
9118;DHT22;4594;50.994;7.126;2023-07-31T00:46:43;19.60;67.50
9118;DHT22;4594;50.994;7.126;2023-07-31T00:49:10;19.50;67.40
9118;DHT22;4594;50.994;7.126;2023-07-31T00:51:36;19.60;67.40
9118;DHT22;4594;50.994;7.126;2023-07-31T00:54:02;19.50;67.40
9118;DHT22;4594;50.994;7.126;2023-07-31T00:56:29;19.60;67.40
9118;DHT22;4594;50.994;7.126;2023-07-31T00:58:55;19.50;67.30
9118;DHT22;4594;50.994;7.126;2023-07-31T01:01:21;19.60;67.40
9118;DHT22;4594;50.994;7.126;2023-07-31T01:03:48;19.50;67.30
9118;DHT22;4594;50.994;7.126;2023-07-31T01:06:28;19.50;67.40
9118;DHT22;4594;50.994;7.126;2023-07-31T01:12:00;19.50;66.10
9118;DHT22;4594;50.994;7.126;2023-07-31T01:14:27;19.50;67.10
9118;DHT22;4594;50.994;7.126;2023-07-31T01:16:54;19.50;67.60
9118;DHT22;4594;50.994;7.126;2023-07-31T01:19:25;19.50;67.50
9118;DHT22;4594;50.994;7.126;2023-07-31T01:22:16;19.50;66.50
9118;DHT22;4594;50.994;7.126;2023-07-31T01:27:29;19.60;66.70
9118;DHT22;4594;50.994;7.126;2023-07-31T01:32:48;19.60;65.50
9118;DHT22;4594;50.994;7.126;2023-07-31T01:35:15;19.50;66.90
9118;DHT22;4594;50.994;7.126;2023-07-31T01:37:40;19.50;66.90
9118;DHT22;4594;50.994;7.126;2023-07-31T01:40:07;19.50;67.00
9118;DHT22;4594;50.994;7.126;2023-07-31T01:42:34;19.50;66.80
9118;DHT22;4594;50.994;7.126;2023-07-31T01:45:00;19.50;66.80
9118;DHT22;4594;50.994;7.126;2023-07-31T01:47:26;19.50;66.70
9118;DHT22;4594;50.994;7.126;2023-07-31T01:49:51;19.50;66.80
9118;DHT22;4594;50.994;7.126;2023-07-31T01:52:17;19.50;66.90
9118;DHT22;4594;50.994;7.126;2023-07-31T01:54:42;19.50;66.90
9118;DHT22;4594;50.994;7.126;2023-07-31T01:57:08;19.50;66.90
9118;DHT22;4594;50.994;7.126;2023-07-31T01:59:34;19.50;67.00
9118;DHT22;4594;50.994;7.126;2023-07-31T02:01:59;19.50;66.80
9118;DHT22;4594;50.994;7.126;2023-07-31T02:04:25;19.40;66.70
9118;DHT22;4594;50.994;7.126;2023-07-31T02:06:53;19.50;66.80
9118;DHT22;4594;50.994;7.126;2023-07-31T02:09:18;19.50;66.50
9118;DHT22;4594;50.994;7.126;2023-07-31T02:11:44;19.50;67.10
9118;DHT22;4594;50.994;7.126;2023-07-31T02:14:10;19.50;67.00
9118;DHT22;4594;50.994;7.126;2023-07-31T02:16:35;19.50;67.00
9118;DHT22;4594;50.994;7.126;2023-07-31T02:19:01;19.50;66.90
9118;DHT22;4594;50.994;7.126;2023-07-31T02:21:27;19.50;67.20
9118;DHT22;4594;50.994;7.126;2023-07-31T02:23:52;19.50;67.20
9118;DHT22;4594;50.994;7.126;2023-07-31T02:26:18;19.60;67.30
9118;DHT22;4594;50.994;7.126;2023-07-31T02:28:43;19.50;67.20
9118;DHT22;4594;50.994;7.126;2023-07-31T02:31:09;19.60;67.20
9118;DHT22;4594;50.994;7.126;2023-07-31T02:33:35;19.60;67.20
9118;DHT22;4594;50.994;7.126;2023-07-31T02:36:00;19.60;67.00
9118;DHT22;4594;50.994;7.126;2023-07-31T02:38:26;19.60;66.90
9118;DHT22;4594;50.994;7.126;2023-07-31T02:40:52;19.60;66.90
9118;DHT22;4594;50.994;7.126;2023-07-31T02:43:17;19.60;66.90
9118;DHT22;4594;50.994;7.126;2023-07-31T02:45:43;19.60;67.00
9118;DHT22;4594;50.994;7.126;2023-07-31T02:48:09;19.60;66.90
9118;DHT22;4594;50.994;7.126;2023-07-31T02:50:34;19.70;67.20
9118;DHT22;4594;50.994;7.126;2023-07-31T02:53:00;19.70;67.30
9118;DHT22;4594;50.994;7.126;2023-07-31T02:55:26;19.70;67.30
9118;DHT22;4594;50.994;7.126;2023-07-31T02:57:51;19.70;67.10
9118;DHT22;4594;50.994;7.126;2023-07-31T03:00:18;19.70;67.00
9118;DHT22;4594;50.994;7.126;2023-07-31T03:02:44;19.70;66.80
9118;DHT22;4594;50.994;7.126;2023-07-31T03:05:09;19.70;66.80
9118;DHT22;4594;50.994;7.126;2023-07-31T03:07:35;19.80;67.10
9118;DHT22;4594;50.994;7.126;2023-07-31T03:10:01;19.80;67.10
9118;DHT22;4594;50.994;7.126;2023-07-31T03:12:27;19.70;67.10
9118;DHT22;4594;50.994;7.126;2023-07-31T03:14:52;19.80;67.10
9118;DHT22;4594;50.994;7.126;2023-07-31T03:17:18;19.80;67.20
9118;DHT22;4594;50.994;7.126;2023-07-31T03:19:44;19.80;67.10
9118;DHT22;4594;50.994;7.126;2023-07-31T03:22:09;19.80;67.00
9118;DHT22;4594;50.994;7.126;2023-07-31T03:24:35;19.80;67.00
9118;DHT22;4594;50.994;7.126;2023-07-31T03:27:01;19.80;66.90
9118;DHT22;4594;50.994;7.126;2023-07-31T03:29:26;19.90;67.00
9118;DHT22;4594;50.994;7.126;2023-07-31T03:31:52;19.80;66.70
9118;DHT22;4594;50.994;7.126;2023-07-31T03:34:18;19.90;66.90
9118;DHT22;4594;50.994;7.126;2023-07-31T03:36:43;19.90;66.90
9118;DHT22;4594;50.994;7.126;2023-07-31T03:39:09;19.90;66.90
9118;DHT22;4594;50.994;7.126;2023-07-31T03:41:35;19.90;66.70
9118;DHT22;4594;50.994;7.126;2023-07-31T03:44:01;19.90;66.60
9118;DHT22;4594;50.994;7.126;2023-07-31T03:46:27;20.00;66.60
9118;DHT22;4594;50.994;7.126;2023-07-31T03:48:52;19.90;66.40
9118;DHT22;4594;50.994;7.126;2023-07-31T03:51:18;19.90;66.40
9118;DHT22;4594;50.994;7.126;2023-07-31T03:53:44;19.90;66.60
9118;DHT22;4594;50.994;7.126;2023-07-31T03:56:10;19.90;66.50
9118;DHT22;4594;50.994;7.126;2023-07-31T03:58:36;19.90;66.40
9118;DHT22;4594;50.994;7.126;2023-07-31T04:01:02;20.00;66.50
9118;DHT22;4594;50.994;7.126;2023-07-31T04:03:29;20.00;66.50
9118;DHT22;4594;50.994;7.126;2023-07-31T04:05:55;20.00;66.60
9118;DHT22;4594;50.994;7.126;2023-07-31T04:08:22;20.00;66.60
9118;DHT22;4594;50.994;7.126;2023-07-31T04:10:48;20.00;66.50
9118;DHT22;4594;50.994;7.126;2023-07-31T04:13:14;20.00;66.40
9118;DHT22;4594;50.994;7.126;2023-07-31T04:15:40;20.10;66.40
9118;DHT22;4594;50.994;7.126;2023-07-31T04:18:06;20.00;66.40
9118;DHT22;4594;50.994;7.126;2023-07-31T04:20:32;20.00;66.40
9118;DHT22;4594;50.994;7.126;2023-07-31T04:22:58;20.00;66.40
9118;DHT22;4594;50.994;7.126;2023-07-31T04:25:24;20.00;66.60
9118;DHT22;4594;50.994;7.126;2023-07-31T04:27:49;20.00;66.50
9118;DHT22;4594;50.994;7.126;2023-07-31T04:30:15;20.00;66.70
9118;DHT22;4594;50.994;7.126;2023-07-31T04:32:41;20.10;67.00
9118;DHT22;4594;50.994;7.126;2023-07-31T04:35:07;20.10;67.10
9118;DHT22;4594;50.994;7.126;2023-07-31T04:37:32;20.10;67.10
9118;DHT22;4594;50.994;7.126;2023-07-31T04:39:58;20.10;67.10
9118;DHT22;4594;50.994;7.126;2023-07-31T04:42:24;20.10;67.30
9118;DHT22;4594;50.994;7.126;2023-07-31T04:44:50;20.10;67.20
9118;DHT22;4594;50.994;7.126;2023-07-31T04:47:16;20.10;67.20
9118;DHT22;4594;50.994;7.126;2023-07-31T04:49:41;20.20;67.30
9118;DHT22;4594;50.994;7.126;2023-07-31T04:52:07;20.20;67.40
9118;DHT22;4594;50.994;7.126;2023-07-31T04:54:33;20.20;67.30
9118;DHT22;4594;50.994;7.126;2023-07-31T04:56:58;20.20;67.20
9118;DHT22;4594;50.994;7.126;2023-07-31T04:59:24;20.20;67.30
9118;DHT22;4594;50.994;7.126;2023-07-31T05:01:50;20.20;67.10
9118;DHT22;4594;50.994;7.126;2023-07-31T05:04:15;20.20;67.10
9118;DHT22;4594;50.994;7.126;2023-07-31T05:06:41;20.10;67.00
9118;DHT22;4594;50.994;7.126;2023-07-31T05:09:07;20.30;67.20
9118;DHT22;4594;50.994;7.126;2023-07-31T05:11:34;20.30;67.20
9118;DHT22;4594;50.994;7.126;2023-07-31T05:14:00;20.30;67.10
9118;DHT22;4594;50.994;7.126;2023-07-31T05:16:26;20.30;67.20
9118;DHT22;4594;50.994;7.126;2023-07-31T05:18:52;20.30;67.30
9118;DHT22;4594;50.994;7.126;2023-07-31T05:21:17;20.30;67.40
9118;DHT22;4594;50.994;7.126;2023-07-31T05:23:43;20.40;67.60
9118;DHT22;4594;50.994;7.126;2023-07-31T05:26:08;20.40;67.30
9118;DHT22;4594;50.994;7.126;2023-07-31T05:28:38;20.40;67.40
9118;DHT22;4594;50.994;7.126;2023-07-31T05:31:04;20.40;67.50
9118;DHT22;4594;50.994;7.126;2023-07-31T05:33:31;20.50;67.50
9118;DHT22;4594;50.994;7.126;2023-07-31T05:35:57;20.50;67.60
9118;DHT22;4594;50.994;7.126;2023-07-31T05:38:23;20.60;67.50
9118;DHT22;4594;50.994;7.126;2023-07-31T05:40:48;20.60;67.70
9118;DHT22;4594;50.994;7.126;2023-07-31T05:43:14;20.70;67.60
9118;DHT22;4594;50.994;7.126;2023-07-31T05:45:41;20.70;67.40
9118;DHT22;4594;50.994;7.126;2023-07-31T05:48:07;20.70;67.20
9118;DHT22;4594;50.994;7.126;2023-07-31T05:50:33;20.70;66.80
9118;DHT22;4594;50.994;7.126;2023-07-31T05:52:59;20.80;66.90
9118;DHT22;4594;50.994;7.126;2023-07-31T05:55:25;20.80;67.00
9118;DHT22;4594;50.994;7.126;2023-07-31T05:57:54;20.80;67.10
9118;DHT22;4594;50.994;7.126;2023-07-31T06:00:20;20.90;67.20
9118;DHT22;4594;50.994;7.126;2023-07-31T06:02:47;20.90;67.10
9118;DHT22;4594;50.994;7.126;2023-07-31T06:05:13;20.90;67.10
9118;DHT22;4594;50.994;7.126;2023-07-31T06:07:39;21.00;66.90
9118;DHT22;4594;50.994;7.126;2023-07-31T06:10:05;21.00;66.50
9118;DHT22;4594;50.994;7.126;2023-07-31T06:12:34;21.00;66.40
9118;DHT22;4594;50.994;7.126;2023-07-31T06:15:01;21.10;65.40
9118;DHT22;4594;50.994;7.126;2023-07-31T06:17:28;21.00;65.90
9118;DHT22;4594;50.994;7.126;2023-07-31T06:19:55;21.10;65.70
9118;DHT22;4594;50.994;7.126;2023-07-31T06:22:22;21.10;65.90
9118;DHT22;4594;50.994;7.126;2023-07-31T06:24:48;21.10;65.90
9118;DHT22;4594;50.994;7.126;2023-07-31T06:27:13;21.10;65.60
9118;DHT22;4594;50.994;7.126;2023-07-31T06:29:39;21.00;65.40
9118;DHT22;4594;50.994;7.126;2023-07-31T06:32:05;21.10;65.40
9118;DHT22;4594;50.994;7.126;2023-07-31T06:34:31;21.00;64.90
9118;DHT22;4594;50.994;7.126;2023-07-31T06:36:57;21.00;64.80
9118;DHT22;4594;50.994;7.126;2023-07-31T06:39:22;20.90;64.60
9118;DHT22;4594;50.994;7.126;2023-07-31T06:41:48;20.90;64.60
9118;DHT22;4594;50.994;7.126;2023-07-31T06:44:14;20.90;64.80
9118;DHT22;4594;50.994;7.126;2023-07-31T06:46:39;20.90;64.80
9118;DHT22;4594;50.994;7.126;2023-07-31T06:49:05;20.80;64.70
9118;DHT22;4594;50.994;7.126;2023-07-31T06:51:31;20.80;64.70
9118;DHT22;4594;50.994;7.126;2023-07-31T06:53:57;20.80;65.10
9118;DHT22;4594;50.994;7.126;2023-07-31T06:56:23;20.70;65.30
9118;DHT22;4594;50.994;7.126;2023-07-31T06:58:49;20.80;65.80
9118;DHT22;4594;50.994;7.126;2023-07-31T07:01:14;20.70;66.10
9118;DHT22;4594;50.994;7.126;2023-07-31T07:03:40;20.70;66.10
9118;DHT22;4594;50.994;7.126;2023-07-31T07:06:06;20.80;66.50
9118;DHT22;4594;50.994;7.126;2023-07-31T07:08:32;20.80;66.90
9118;DHT22;4594;50.994;7.126;2023-07-31T07:10:58;20.80;66.80
9118;DHT22;4594;50.994;7.126;2023-07-31T07:13:23;20.80;67.20
9118;DHT22;4594;50.994;7.126;2023-07-31T07:15:50;20.80;67.40
9118;DHT22;4594;50.994;7.126;2023-07-31T07:18:16;20.90;67.50
9118;DHT22;4594;50.994;7.126;2023-07-31T07:20:50;20.90;67.70
9118;DHT22;4594;50.994;7.126;2023-07-31T07:23:17;20.90;66.10
9118;DHT22;4594;50.994;7.126;2023-07-31T07:25:44;21.00;67.90
9118;DHT22;4594;50.994;7.126;2023-07-31T07:28:10;21.00;67.80
9118;DHT22;4594;50.994;7.126;2023-07-31T07:30:36;21.00;67.70
9118;DHT22;4594;50.994;7.126;2023-07-31T07:33:02;21.00;67.70
9118;DHT22;4594;50.994;7.126;2023-07-31T07:35:28;21.00;67.70
9118;DHT22;4594;50.994;7.126;2023-07-31T07:37:54;21.10;67.60
9118;DHT22;4594;50.994;7.126;2023-07-31T07:40:20;21.10;67.50
9118;DHT22;4594;50.994;7.126;2023-07-31T07:42:46;21.10;67.30
9118;DHT22;4594;50.994;7.126;2023-07-31T07:45:12;21.10;67.00
9118;DHT22;4594;50.994;7.126;2023-07-31T07:47:41;21.10;67.10
9118;DHT22;4594;50.994;7.126;2023-07-31T07:50:08;21.10;66.80
9118;DHT22;4594;50.994;7.126;2023-07-31T07:52:34;21.10;66.70
9118;DHT22;4594;50.994;7.126;2023-07-31T07:55:00;21.00;66.60
9118;DHT22;4594;50.994;7.126;2023-07-31T07:57:26;21.00;66.40
9118;DHT22;4594;50.994;7.126;2023-07-31T07:59:52;21.00;66.20
9118;DHT22;4594;50.994;7.126;2023-07-31T08:02:18;21.00;66.60
9118;DHT22;4594;50.994;7.126;2023-07-31T08:04:43;20.90;66.80
9118;DHT22;4594;50.994;7.126;2023-07-31T08:07:12;20.90;67.20
9118;DHT22;4594;50.994;7.126;2023-07-31T08:09:38;20.90;67.20
9118;DHT22;4594;50.994;7.126;2023-07-31T08:12:05;20.80;68.10
9118;DHT22;4594;50.994;7.126;2023-07-31T08:14:32;20.80;68.30
9118;DHT22;4594;50.994;7.126;2023-07-31T08:16:57;20.80;68.80
9118;DHT22;4594;50.994;7.126;2023-07-31T08:19:23;20.80;69.20
9118;DHT22;4594;50.994;7.126;2023-07-31T08:21:49;20.90;69.50
9118;DHT22;4594;50.994;7.126;2023-07-31T08:24:14;20.80;69.60
9118;DHT22;4594;50.994;7.126;2023-07-31T08:26:40;20.90;69.90
9118;DHT22;4594;50.994;7.126;2023-07-31T08:29:06;20.90;70.50
9118;DHT22;4594;50.994;7.126;2023-07-31T08:31:31;20.80;70.40
9118;DHT22;4594;50.994;7.126;2023-07-31T08:33:57;20.90;70.50
9118;DHT22;4594;50.994;7.126;2023-07-31T08:36:23;20.90;70.70
9118;DHT22;4594;50.994;7.126;2023-07-31T08:38:48;20.90;70.80
9118;DHT22;4594;50.994;7.126;2023-07-31T08:41:15;20.90;70.60
9118;DHT22;4594;50.994;7.126;2023-07-31T08:43:46;21.00;70.40
9118;DHT22;4594;50.994;7.126;2023-07-31T08:46:12;21.00;69.70
9118;DHT22;4594;50.994;7.126;2023-07-31T08:48:42;21.00;69.80
9118;DHT22;4594;50.994;7.126;2023-07-31T08:51:08;21.00;69.30
9118;DHT22;4594;50.994;7.126;2023-07-31T08:53:34;21.00;69.70
9118;DHT22;4594;50.994;7.126;2023-07-31T08:56:01;21.10;69.60
9118;DHT22;4594;50.994;7.126;2023-07-31T08:58:31;21.10;69.60
9118;DHT22;4594;50.994;7.126;2023-07-31T09:01:01;21.10;68.50
9118;DHT22;4594;50.994;7.126;2023-07-31T09:03:33;21.10;68.00
9118;DHT22;4594;50.994;7.126;2023-07-31T09:06:01;21.10;67.80
9118;DHT22;4594;50.994;7.126;2023-07-31T09:08:30;21.10;68.60
9118;DHT22;4594;50.994;7.126;2023-07-31T09:11:01;21.00;68.80
9118;DHT22;4594;50.994;7.126;2023-07-31T09:13:31;21.00;68.80
9118;DHT22;4594;50.994;7.126;2023-07-31T09:15:57;21.00;69.50
9118;DHT22;4594;50.994;7.126;2023-07-31T09:18:23;21.00;69.20
9118;DHT22;4594;50.994;7.126;2023-07-31T09:21:03;21.00;69.00
9118;DHT22;4594;50.994;7.126;2023-07-31T09:23:43;21.00;66.90
9118;DHT22;4594;50.994;7.126;2023-07-31T09:26:11;20.90;67.00
9118;DHT22;4594;50.994;7.126;2023-07-31T09:28:53;20.90;68.90
9118;DHT22;4594;50.994;7.126;2023-07-31T09:31:40;21.00;68.50
9118;DHT22;4594;50.994;7.126;2023-07-31T09:34:07;21.00;67.20
9118;DHT22;4594;50.994;7.126;2023-07-31T09:36:40;21.00;68.60
9118;DHT22;4594;50.994;7.126;2023-07-31T09:39:11;21.00;66.90
9118;DHT22;4594;50.994;7.126;2023-07-31T09:41:43;20.90;68.30
9118;DHT22;4594;50.994;7.126;2023-07-31T09:44:19;20.90;67.70
9118;DHT22;4594;50.994;7.126;2023-07-31T09:46:45;20.90;69.10
9118;DHT22;4594;50.994;7.126;2023-07-31T09:49:13;20.90;69.40
9118;DHT22;4594;50.994;7.126;2023-07-31T09:51:42;20.90;69.60
9118;DHT22;4594;50.994;7.126;2023-07-31T09:54:15;20.90;69.80
9118;DHT22;4594;50.994;7.126;2023-07-31T09:56:47;21.00;68.20
9118;DHT22;4594;50.994;7.126;2023-07-31T09:59:16;21.00;68.20
9118;DHT22;4594;50.994;7.126;2023-07-31T10:01:43;21.00;68.50
9118;DHT22;4594;50.994;7.126;2023-07-31T10:04:12;21.00;68.60
9118;DHT22;4594;50.994;7.126;2023-07-31T10:06:40;21.00;68.80
9118;DHT22;4594;50.994;7.126;2023-07-31T10:09:11;21.00;69.10
9118;DHT22;4594;50.994;7.126;2023-07-31T10:11:47;21.00;68.40
9118;DHT22;4594;50.994;7.126;2023-07-31T10:14:20;21.00;68.50
9118;DHT22;4594;50.994;7.126;2023-07-31T10:16:46;21.00;68.60
9118;DHT22;4594;50.994;7.126;2023-07-31T10:19:12;21.00;69.50
9118;DHT22;4594;50.994;7.126;2023-07-31T10:21:38;21.00;69.80
9118;DHT22;4594;50.994;7.126;2023-07-31T10:24:05;21.00;69.70
9118;DHT22;4594;50.994;7.126;2023-07-31T10:26:32;21.00;69.80
9118;DHT22;4594;50.994;7.126;2023-07-31T10:29:01;21.00;70.00
9118;DHT22;4594;50.994;7.126;2023-07-31T10:31:28;21.00;69.80
9118;DHT22;4594;50.994;7.126;2023-07-31T10:33:55;21.10;70.00
9118;DHT22;4594;50.994;7.126;2023-07-31T10:36:23;20.90;70.30
9118;DHT22;4594;50.994;7.126;2023-07-31T10:38:49;21.10;71.00
9118;DHT22;4594;50.994;7.126;2023-07-31T10:41:18;21.10;71.10
9118;DHT22;4594;50.994;7.126;2023-07-31T10:43:46;21.20;71.40
9118;DHT22;4594;50.994;7.126;2023-07-31T10:46:13;21.20;71.50
9118;DHT22;4594;50.994;7.126;2023-07-31T10:48:41;21.20;72.10
9118;DHT22;4594;50.994;7.126;2023-07-31T10:51:11;21.30;72.60
9118;DHT22;4594;50.994;7.126;2023-07-31T10:53:38;21.40;72.00
9118;DHT22;4594;50.994;7.126;2023-07-31T10:56:07;21.40;73.00
9118;DHT22;4594;50.994;7.126;2023-07-31T10:58:36;21.50;73.10
9118;DHT22;4594;50.994;7.126;2023-07-31T11:01:04;21.60;73.50
9118;DHT22;4594;50.994;7.126;2023-07-31T11:03:51;21.70;73.20
9118;DHT22;4594;50.994;7.126;2023-07-31T11:06:19;21.70;71.40
9118;DHT22;4594;50.994;7.126;2023-07-31T11:08:49;21.80;73.40
9118;DHT22;4594;50.994;7.126;2023-07-31T11:11:19;21.90;73.00
9118;DHT22;4594;50.994;7.126;2023-07-31T11:13:53;21.90;71.70
9118;DHT22;4594;50.994;7.126;2023-07-31T11:16:24;21.90;69.90
9118;DHT22;4594;50.994;7.126;2023-07-31T11:18:51;22.00;70.80
9118;DHT22;4594;50.994;7.126;2023-07-31T11:21:21;21.90;71.40
9118;DHT22;4594;50.994;7.126;2023-07-31T11:23:52;22.00;71.60
9118;DHT22;4594;50.994;7.126;2023-07-31T11:26:19;21.90;70.90
9118;DHT22;4594;50.994;7.126;2023-07-31T11:28:49;21.90;71.70
9118;DHT22;4594;50.994;7.126;2023-07-31T11:31:16;21.90;70.60
9118;DHT22;4594;50.994;7.126;2023-07-31T11:33:43;21.90;71.50
9118;DHT22;4594;50.994;7.126;2023-07-31T11:36:20;21.90;71.60
9118;DHT22;4594;50.994;7.126;2023-07-31T11:38:46;22.00;70.50
9118;DHT22;4594;50.994;7.126;2023-07-31T11:41:14;21.90;72.10
9118;DHT22;4594;50.994;7.126;2023-07-31T11:43:44;21.90;72.10
9118;DHT22;4594;50.994;7.126;2023-07-31T11:46:11;22.00;72.90
9118;DHT22;4594;50.994;7.126;2023-07-31T11:48:37;22.00;73.30
9118;DHT22;4594;50.994;7.126;2023-07-31T11:51:05;22.00;73.50
9118;DHT22;4594;50.994;7.126;2023-07-31T11:53:51;22.10;73.60
9118;DHT22;4594;50.994;7.126;2023-07-31T11:56:21;22.10;73.70
9118;DHT22;4594;50.994;7.126;2023-07-31T11:58:58;22.20;74.00
9118;DHT22;4594;50.994;7.126;2023-07-31T12:01:25;22.20;73.80
9118;DHT22;4594;50.994;7.126;2023-07-31T12:03:53;22.30;74.50
9118;DHT22;4594;50.994;7.126;2023-07-31T12:06:20;22.30;74.50
9118;DHT22;4594;50.994;7.126;2023-07-31T12:08:46;22.40;74.20
9118;DHT22;4594;50.994;7.126;2023-07-31T12:11:12;22.50;73.80
9118;DHT22;4594;50.994;7.126;2023-07-31T12:13:43;22.50;73.30
9118;DHT22;4594;50.994;7.126;2023-07-31T12:16:08;22.50;72.30
9118;DHT22;4594;50.994;7.126;2023-07-31T12:18:38;22.60;71.60
9118;DHT22;4594;50.994;7.126;2023-07-31T12:21:06;22.40;69.20
9118;DHT22;4594;50.994;7.126;2023-07-31T12:23:34;22.50;70.60
9118;DHT22;4594;50.994;7.126;2023-07-31T12:26:15;22.50;70.70
9118;DHT22;4594;50.994;7.126;2023-07-31T12:28:46;22.50;67.70
9118;DHT22;4594;50.994;7.126;2023-07-31T12:31:15;22.50;69.20
9118;DHT22;4594;50.994;7.126;2023-07-31T12:33:43;22.60;70.00
9118;DHT22;4594;50.994;7.126;2023-07-31T12:36:11;22.50;70.10
9118;DHT22;4594;50.994;7.126;2023-07-31T12:38:39;22.40;70.10
9118;DHT22;4594;50.994;7.126;2023-07-31T12:41:05;22.40;70.10
9118;DHT22;4594;50.994;7.126;2023-07-31T12:43:35;22.40;70.20
9118;DHT22;4594;50.994;7.126;2023-07-31T12:46:02;22.40;69.80
9118;DHT22;4594;50.994;7.126;2023-07-31T12:48:29;22.40;69.70
9118;DHT22;4594;50.994;7.126;2023-07-31T12:50:54;22.40;69.80
9118;DHT22;4594;50.994;7.126;2023-07-31T12:53:20;22.40;69.70
9118;DHT22;4594;50.994;7.126;2023-07-31T12:55:46;22.30;69.60
9118;DHT22;4594;50.994;7.126;2023-07-31T12:58:12;22.40;69.80
9118;DHT22;4594;50.994;7.126;2023-07-31T13:00:38;22.30;69.40
9118;DHT22;4594;50.994;7.126;2023-07-31T13:03:03;22.30;69.70
9118;DHT22;4594;50.994;7.126;2023-07-31T13:05:29;22.30;69.80
9118;DHT22;4594;50.994;7.126;2023-07-31T13:07:55;22.30;69.80
9118;DHT22;4594;50.994;7.126;2023-07-31T13:10:22;22.30;70.20
9118;DHT22;4594;50.994;7.126;2023-07-31T13:12:49;22.30;70.10
9118;DHT22;4594;50.994;7.126;2023-07-31T13:15:15;22.30;70.50
9118;DHT22;4594;50.994;7.126;2023-07-31T13:17:41;22.30;70.20
9118;DHT22;4594;50.994;7.126;2023-07-31T13:20:07;22.40;69.80
9118;DHT22;4594;50.994;7.126;2023-07-31T13:22:33;22.40;69.70
9118;DHT22;4594;50.994;7.126;2023-07-31T13:24:59;22.40;70.60
9118;DHT22;4594;50.994;7.126;2023-07-31T13:27:25;22.40;70.50
9118;DHT22;4594;50.994;7.126;2023-07-31T13:29:51;22.50;70.60
9118;DHT22;4594;50.994;7.126;2023-07-31T13:32:18;22.50;70.40
9118;DHT22;4594;50.994;7.126;2023-07-31T13:34:45;22.50;70.00
9118;DHT22;4594;50.994;7.126;2023-07-31T13:37:12;22.60;69.50
9118;DHT22;4594;50.994;7.126;2023-07-31T13:39:38;22.50;69.00
9118;DHT22;4594;50.994;7.126;2023-07-31T13:42:05;22.60;69.50
9118;DHT22;4594;50.994;7.126;2023-07-31T13:44:34;22.60;70.00
9118;DHT22;4594;50.994;7.126;2023-07-31T13:47:00;22.70;70.60
9118;DHT22;4594;50.994;7.126;2023-07-31T13:49:27;22.60;70.70
9118;DHT22;4594;50.994;7.126;2023-07-31T13:51:53;22.70;70.60
9118;DHT22;4594;50.994;7.126;2023-07-31T13:54:18;22.70;70.70
9118;DHT22;4594;50.994;7.126;2023-07-31T13:56:44;22.80;71.30
9118;DHT22;4594;50.994;7.126;2023-07-31T13:59:10;22.80;71.20
9118;DHT22;4594;50.994;7.126;2023-07-31T14:01:36;22.90;71.80
9118;DHT22;4594;50.994;7.126;2023-07-31T14:04:02;23.00;72.20
9118;DHT22;4594;50.994;7.126;2023-07-31T14:06:28;23.10;71.80
9118;DHT22;4594;50.994;7.126;2023-07-31T14:08:54;23.20;72.80
9118;DHT22;4594;50.994;7.126;2023-07-31T14:11:21;23.30;73.90
9118;DHT22;4594;50.994;7.126;2023-07-31T14:13:49;23.50;74.10
9118;DHT22;4594;50.994;7.126;2023-07-31T14:16:15;23.60;73.20
9118;DHT22;4594;50.994;7.126;2023-07-31T14:18:41;23.70;73.00
9118;DHT22;4594;50.994;7.126;2023-07-31T14:21:07;23.80;72.30
9118;DHT22;4594;50.994;7.126;2023-07-31T14:23:34;24.00;70.70
9118;DHT22;4594;50.994;7.126;2023-07-31T14:25:59;24.00;69.90
9118;DHT22;4594;50.994;7.126;2023-07-31T14:28:25;24.00;67.90
9118;DHT22;4594;50.994;7.126;2023-07-31T14:30:51;24.00;68.00
9118;DHT22;4594;50.994;7.126;2023-07-31T14:33:17;24.10;67.90
9118;DHT22;4594;50.994;7.126;2023-07-31T14:35:42;24.00;66.00
9118;DHT22;4594;50.994;7.126;2023-07-31T14:38:09;24.00;64.70
9118;DHT22;4594;50.994;7.126;2023-07-31T14:40:35;24.00;64.10
9118;DHT22;4594;50.994;7.126;2023-07-31T14:43:01;24.00;64.10
9118;DHT22;4594;50.994;7.126;2023-07-31T14:45:27;23.90;64.90
9118;DHT22;4594;50.994;7.126;2023-07-31T14:47:53;23.80;64.00
9118;DHT22;4594;50.994;7.126;2023-07-31T14:50:20;23.80;64.10
9118;DHT22;4594;50.994;7.126;2023-07-31T14:52:47;23.70;64.00
9118;DHT22;4594;50.994;7.126;2023-07-31T14:55:13;23.70;64.80
9118;DHT22;4594;50.994;7.126;2023-07-31T14:57:39;23.70;64.80
9118;DHT22;4594;50.994;7.126;2023-07-31T15:00:05;23.70;64.00
9118;DHT22;4594;50.994;7.126;2023-07-31T15:02:34;23.60;63.50
9118;DHT22;4594;50.994;7.126;2023-07-31T15:05:01;23.60;63.50
9118;DHT22;4594;50.994;7.126;2023-07-31T15:07:26;23.60;64.30
9118;DHT22;4594;50.994;7.126;2023-07-31T15:09:52;23.50;64.50
9118;DHT22;4594;50.994;7.126;2023-07-31T15:12:18;23.50;64.10
9118;DHT22;4594;50.994;7.126;2023-07-31T15:14:43;23.40;63.40
9118;DHT22;4594;50.994;7.126;2023-07-31T15:17:09;23.50;63.30
9118;DHT22;4594;50.994;7.126;2023-07-31T15:19:35;23.50;63.40
9118;DHT22;4594;50.994;7.126;2023-07-31T15:22:02;23.40;62.80
9118;DHT22;4594;50.994;7.126;2023-07-31T15:24:29;23.40;62.10
9118;DHT22;4594;50.994;7.126;2023-07-31T15:26:54;23.40;62.30
9118;DHT22;4594;50.994;7.126;2023-07-31T15:29:21;23.30;62.10
9118;DHT22;4594;50.994;7.126;2023-07-31T15:31:47;23.30;62.00
9118;DHT22;4594;50.994;7.126;2023-07-31T15:34:13;23.30;61.80
9118;DHT22;4594;50.994;7.126;2023-07-31T15:36:40;23.20;62.00
9118;DHT22;4594;50.994;7.126;2023-07-31T15:39:06;23.20;62.40
9118;DHT22;4594;50.994;7.126;2023-07-31T15:41:35;23.10;62.10
9118;DHT22;4594;50.994;7.126;2023-07-31T15:44:01;23.10;62.00
9118;DHT22;4594;50.994;7.126;2023-07-31T15:46:27;23.10;62.10
9118;DHT22;4594;50.994;7.126;2023-07-31T15:48:53;23.10;62.00
9118;DHT22;4594;50.994;7.126;2023-07-31T15:51:22;23.00;61.90
9118;DHT22;4594;50.994;7.126;2023-07-31T15:53:49;23.00;61.50
9118;DHT22;4594;50.994;7.126;2023-07-31T15:56:15;23.00;61.80
9118;DHT22;4594;50.994;7.126;2023-07-31T15:58:40;22.90;62.00
9118;DHT22;4594;50.994;7.126;2023-07-31T16:01:06;22.90;62.60
9118;DHT22;4594;50.994;7.126;2023-07-31T16:03:33;22.90;63.00
9118;DHT22;4594;50.994;7.126;2023-07-31T16:05:59;22.90;62.50
9118;DHT22;4594;50.994;7.126;2023-07-31T16:08:24;22.90;61.70